sensor_id;sensor_type;location;lat;lon;timestamp;pressure;altitude;pressure_sealevel;temperature;humidity
61337;BME280;47212;41.326;2.104;2023-05-23T00:04:31;101256.06;;;18.51;66.88
61337;BME280;47212;41.326;2.104;2023-05-23T00:09:33;101257.81;;;18.46;67.09
61337;BME280;47212;41.326;2.104;2023-05-23T00:14:36;101260.66;;;18.41;66.89
61337;BME280;47212;41.326;2.104;2023-05-23T00:19:40;101249.41;;;18.38;67.17
61337;BME280;47212;41.326;2.104;2023-05-23T00:25:24;101253.06;;;18.33;67.19
61337;BME280;47212;41.326;2.104;2023-05-23T00:30:29;101244.91;;;18.28;67.51
61337;BME280;47212;41.326;2.104;2023-05-23T00:35:31;101242.22;;;18.23;67.53
61337;BME280;47212;41.326;2.104;2023-05-23T00:40:34;101237.59;;;18.19;67.67
61337;BME280;47212;41.326;2.104;2023-05-23T00:45:39;101236.25;;;18.16;68.02
61337;BME280;47212;41.326;2.104;2023-05-23T00:50:42;101233.59;;;18.11;68.04
61337;BME280;47212;41.326;2.104;2023-05-23T00:55:44;101236.13;;;18.07;68.08
61337;BME280;47212;41.326;2.104;2023-05-23T01:05:35;101229.28;;;18.05;68.45
61337;BME280;47212;41.326;2.104;2023-05-23T01:10:40;101233.47;;;18.02;68.73
61337;BME280;47212;41.326;2.104;2023-05-23T01:16:00;101225.50;;;18.01;69.46
61337;BME280;47212;41.326;2.104;2023-05-23T01:21:18;101218.34;;;18.00;69.96
61337;BME280;47212;41.326;2.104;2023-05-23T01:31:34;101210.69;;;17.97;69.38
61337;BME280;47212;41.326;2.104;2023-05-23T01:36:41;101200.47;;;17.97;69.73
61337;BME280;47212;41.326;2.104;2023-05-23T01:41:44;101198.56;;;17.98;69.56
61337;BME280;47212;41.326;2.104;2023-05-23T01:46:47;101203.53;;;17.96;69.81
61337;BME280;47212;41.326;2.104;2023-05-23T01:51:53;101209.88;;;17.96;69.76
61337;BME280;47212;41.326;2.104;2023-05-23T01:56:56;101209.03;;;17.96;69.90
61337;BME280;47212;41.326;2.104;2023-05-23T02:02:02;101205.78;;;17.94;69.95
61337;BME280;47212;41.326;2.104;2023-05-23T02:07:04;101206.91;;;17.93;69.95
61337;BME280;47212;41.326;2.104;2023-05-23T02:12:13;101214.94;;;17.89;69.75
61337;BME280;47212;41.326;2.104;2023-05-23T02:17:15;101220.81;;;17.82;69.92
61337;BME280;47212;41.326;2.104;2023-05-23T02:22:52;101217.13;;;17.73;70.32
61337;BME280;47212;41.326;2.104;2023-05-23T02:27:54;101218.81;;;17.69;70.04
61337;BME280;47212;41.326;2.104;2023-05-23T02:32:56;101213.66;;;17.63;70.30
61337;BME280;47212;41.326;2.104;2023-05-23T02:37:59;101204.66;;;17.57;70.51
61337;BME280;47212;41.326;2.104;2023-05-23T02:43:01;101211.06;;;17.52;70.78
61337;BME280;47212;41.326;2.104;2023-05-23T02:48:04;101203.09;;;17.51;71.07
61337;BME280;47212;41.326;2.104;2023-05-23T02:53:07;101189.41;;;17.46;71.00
61337;BME280;47212;41.326;2.104;2023-05-23T02:58:11;101186.97;;;17.44;71.14
61337;BME280;47212;41.326;2.104;2023-05-23T03:03:13;101186.16;;;17.44;71.19
61337;BME280;47212;41.326;2.104;2023-05-23T03:08:17;101184.22;;;17.44;71.52
61337;BME280;47212;41.326;2.104;2023-05-23T03:13:20;101175.66;;;17.46;71.24
61337;BME280;47212;41.326;2.104;2023-05-23T03:18:22;101166.59;;;17.45;71.42
61337;BME280;47212;41.326;2.104;2023-05-23T03:23:24;101163.00;;;17.45;72.97
61337;BME280;47212;41.326;2.104;2023-05-23T03:28:27;101153.13;;;17.44;71.42
61337;BME280;47212;41.326;2.104;2023-05-23T03:33:29;101158.63;;;17.44;71.62
61337;BME280;47212;41.326;2.104;2023-05-23T03:38:31;101165.53;;;17.41;71.79
61337;BME280;47212;41.326;2.104;2023-05-23T03:43:33;101160.34;;;17.40;71.61
61337;BME280;47212;41.326;2.104;2023-05-23T03:48:36;101170.53;;;17.39;71.70
61337;BME280;47212;41.326;2.104;2023-05-23T03:53:38;101163.59;;;17.42;71.81
61337;BME280;47212;41.326;2.104;2023-05-23T03:58:40;101166.97;;;17.39;71.94
61337;BME280;47212;41.326;2.104;2023-05-23T04:03:51;101157.88;;;17.38;71.92
61337;BME280;47212;41.326;2.104;2023-05-23T04:08:56;101160.13;;;17.36;72.39
61337;BME280;47212;41.326;2.104;2023-05-23T04:13:59;101169.75;;;17.34;72.22
61337;BME280;47212;41.326;2.104;2023-05-23T04:19:08;101170.88;;;17.33;72.22
61337;BME280;47212;41.326;2.104;2023-05-23T04:28:00;101164.84;;;17.31;72.39
61337;BME280;47212;41.326;2.104;2023-05-23T04:33:02;101151.09;;;17.31;72.37
61337;BME280;47212;41.326;2.104;2023-05-23T04:38:13;101153.84;;;17.31;72.37
61337;BME280;47212;41.326;2.104;2023-05-23T04:43:16;101158.81;;;17.29;72.00
61337;BME280;47212;41.326;2.104;2023-05-23T04:48:22;101156.66;;;17.26;72.26
61337;BME280;47212;41.326;2.104;2023-05-23T04:53:25;101162.47;;;17.24;72.13
61337;BME280;47212;41.326;2.104;2023-05-23T04:58:27;101155.31;;;17.23;72.18
61337;BME280;47212;41.326;2.104;2023-05-23T05:03:33;101160.00;;;17.23;72.54
61337;BME280;47212;41.326;2.104;2023-05-23T05:08:39;101168.25;;;17.23;72.30
61337;BME280;47212;41.326;2.104;2023-05-23T05:13:44;101166.63;;;17.22;72.38
61337;BME280;47212;41.326;2.104;2023-05-23T05:18:49;101158.06;;;17.23;72.83
61337;BME280;47212;41.326;2.104;2023-05-23T05:23:53;101168.78;;;17.25;72.48
61337;BME280;47212;41.326;2.104;2023-05-23T05:28:56;101163.81;;;17.27;72.69
61337;BME280;47212;41.326;2.104;2023-05-23T05:34:00;101167.06;;;17.29;72.53
61337;BME280;47212;41.326;2.104;2023-05-23T05:39:02;101173.09;;;17.31;72.45
61337;BME280;47212;41.326;2.104;2023-05-23T05:44:07;101166.47;;;17.32;72.55
61337;BME280;47212;41.326;2.104;2023-05-23T05:49:09;101174.09;;;17.40;72.74
61337;BME280;47212;41.326;2.104;2023-05-23T05:54:13;101177.28;;;17.47;72.56
61337;BME280;47212;41.326;2.104;2023-05-23T05:59:18;101179.38;;;17.55;72.48
61337;BME280;47212;41.326;2.104;2023-05-23T06:04:20;101178.19;;;17.61;72.37
61337;BME280;47212;41.326;2.104;2023-05-23T06:09:24;101184.16;;;17.68;72.20
61337;BME280;47212;41.326;2.104;2023-05-23T06:14:26;101202.44;;;17.78;72.00
61337;BME280;47212;41.326;2.104;2023-05-23T06:19:29;101198.19;;;17.86;71.77
61337;BME280;47212;41.326;2.104;2023-05-23T06:24:33;101204.13;;;17.93;71.56
61337;BME280;47212;41.326;2.104;2023-05-23T06:29:37;101195.19;;;18.01;71.37
61337;BME280;47212;41.326;2.104;2023-05-23T06:34:39;101186.25;;;18.09;71.11
61337;BME280;47212;41.326;2.104;2023-05-23T06:39:44;101189.94;;;18.18;70.77
61337;BME280;47212;41.326;2.104;2023-05-23T06:44:46;101182.63;;;18.27;70.81
61337;BME280;47212;41.326;2.104;2023-05-23T06:49:48;101179.59;;;18.42;70.92
61337;BME280;47212;41.326;2.104;2023-05-23T06:54:50;101188.63;;;18.62;70.18
61337;BME280;47212;41.326;2.104;2023-05-23T06:59:55;101187.72;;;18.80;70.03
61337;BME280;47212;41.326;2.104;2023-05-23T07:04:58;101185.25;;;18.92;69.66
61337;BME280;47212;41.326;2.104;2023-05-23T07:10:26;101193.84;;;19.04;68.83
61337;BME280;47212;41.326;2.104;2023-05-23T07:15:37;101194.78;;;19.14;68.98
61337;BME280;47212;41.326;2.104;2023-05-23T07:22:57;101189.41;;;19.31;68.31
61337;BME280;47212;41.326;2.104;2023-05-23T07:28:00;101204.63;;;19.42;68.15
61337;BME280;47212;41.326;2.104;2023-05-23T07:33:02;101194.47;;;19.51;67.88
61337;BME280;47212;41.326;2.104;2023-05-23T07:38:07;101202.06;;;19.59;67.74
61337;BME280;47212;41.326;2.104;2023-05-23T07:43:10;101196.09;;;19.66;67.00
61337;BME280;47212;41.326;2.104;2023-05-23T07:48:12;101188.88;;;19.79;66.70
61337;BME280;47212;41.326;2.104;2023-05-23T07:53:14;101189.47;;;19.89;66.25
61337;BME280;47212;41.326;2.104;2023-05-23T07:58:17;101174.09;;;19.97;66.84
61337;BME280;47212;41.326;2.104;2023-05-23T08:03:21;101190.88;;;20.00;68.42
61337;BME280;47212;41.326;2.104;2023-05-23T08:08:35;101198.84;;;20.02;69.03
61337;BME280;47212;41.326;2.104;2023-05-23T08:13:39;101204.88;;;20.04;70.53
61337;BME280;47212;41.326;2.104;2023-05-23T08:19:10;101197.13;;;20.15;71.61
61337;BME280;47212;41.326;2.104;2023-05-23T08:24:12;101205.09;;;20.16;70.88
61337;BME280;47212;41.326;2.104;2023-05-23T08:29:17;101198.72;;;20.07;71.04
61337;BME280;47212;41.326;2.104;2023-05-23T08:34:20;101194.06;;;20.16;70.99
61337;BME280;47212;41.326;2.104;2023-05-23T08:39:23;101186.94;;;20.24;70.98
61337;BME280;47212;41.326;2.104;2023-05-23T08:44:42;101185.72;;;20.39;71.38
61337;BME280;47212;41.326;2.104;2023-05-23T08:49:45;101197.81;;;20.43;71.37
61337;BME280;47212;41.326;2.104;2023-05-23T08:54:48;101195.53;;;20.45;72.38
61337;BME280;47212;41.326;2.104;2023-05-23T08:59:51;101199.81;;;20.51;71.80
61337;BME280;47212;41.326;2.104;2023-05-23T09:05:06;101203.44;;;20.60;71.16
61337;BME280;47212;41.326;2.104;2023-05-23T09:10:12;101205.09;;;20.70;71.06
61337;BME280;47212;41.326;2.104;2023-05-23T09:15:18;101213.19;;;20.97;69.79
61337;BME280;47212;41.326;2.104;2023-05-23T09:20:21;101205.97;;;21.27;69.35
61337;BME280;47212;41.326;2.104;2023-05-23T09:25:30;101209.75;;;21.66;68.18
61337;BME280;47212;41.326;2.104;2023-05-23T09:30:33;101218.56;;;21.93;66.96
61337;BME280;47212;41.326;2.104;2023-05-23T09:35:35;101223.78;;;22.21;65.20
61337;BME280;47212;41.326;2.104;2023-05-23T09:40:44;101227.81;;;22.41;63.10
61337;BME280;47212;41.326;2.104;2023-05-23T09:45:51;101217.84;;;22.48;63.07
61337;BME280;47212;41.326;2.104;2023-05-23T09:50:53;101214.53;;;22.72;62.58
61337;BME280;47212;41.326;2.104;2023-05-23T09:55:58;101222.81;;;22.90;61.45
61337;BME280;47212;41.326;2.104;2023-05-23T10:01:01;101208.63;;;23.12;61.52
61337;BME280;47212;41.326;2.104;2023-05-23T10:06:15;101199.31;;;23.37;59.79
61337;BME280;47212;41.326;2.104;2023-05-23T10:17:10;101192.53;;;23.56;58.24
61337;BME280;47212;41.326;2.104;2023-05-23T10:22:18;101193.56;;;23.72;59.11
61337;BME280;47212;41.326;2.104;2023-05-23T10:27:25;101171.72;;;23.82;58.39
61337;BME280;47212;41.326;2.104;2023-05-23T10:32:29;101183.63;;;23.83;57.12
61337;BME280;47212;41.326;2.104;2023-05-23T10:37:47;101190.22;;;23.78;54.85
61337;BME280;47212;41.326;2.104;2023-05-23T10:49:01;101174.47;;;24.15;55.03
61337;BME280;47212;41.326;2.104;2023-05-23T10:53:43;101171.25;;;24.26;56.29
61337;BME280;47212;41.326;2.104;2023-05-23T10:58:55;101175.97;;;24.34;54.52
61337;BME280;47212;41.326;2.104;2023-05-23T11:04:04;101186.41;;;24.16;54.00
61337;BME280;47212;41.326;2.104;2023-05-23T11:09:13;101182.09;;;24.06;55.55
61337;BME280;47212;41.326;2.104;2023-05-23T11:19:32;101177.47;;;24.10;56.14
61337;BME280;47212;41.326;2.104;2023-05-23T11:24:55;101177.66;;;23.93;54.14
61337;BME280;47212;41.326;2.104;2023-05-23T11:35:07;101172.53;;;23.41;56.75
61337;BME280;47212;41.326;2.104;2023-05-23T11:45:35;101183.59;;;23.20;58.31
61337;BME280;47212;41.326;2.104;2023-05-23T11:50:49;101187.81;;;22.97;58.99
61337;BME280;47212;41.326;2.104;2023-05-23T11:55:56;101180.31;;;22.98;59.49
61337;BME280;47212;41.326;2.104;2023-05-23T12:01:05;101176.66;;;23.06;59.35
61337;BME280;47212;41.326;2.104;2023-05-23T12:06:08;101175.19;;;23.08;60.15
61337;BME280;47212;41.326;2.104;2023-05-23T12:11:14;101183.56;;;23.00;59.97
61337;BME280;47212;41.326;2.104;2023-05-23T12:16:16;101180.31;;;22.98;60.40
61337;BME280;47212;41.326;2.104;2023-05-23T12:22:44;101192.66;;;23.09;60.53
61337;BME280;47212;41.326;2.104;2023-05-23T12:27:52;101181.97;;;23.19;60.18
61337;BME280;47212;41.326;2.104;2023-05-23T12:32:58;101180.06;;;23.32;60.20
61337;BME280;47212;41.326;2.104;2023-05-23T12:38:00;101182.66;;;23.37;59.68
61337;BME280;47212;41.326;2.104;2023-05-23T12:43:08;101177.97;;;23.29;59.57
61337;BME280;47212;41.326;2.104;2023-05-23T12:48:13;101186.97;;;23.26;59.61
61337;BME280;47212;41.326;2.104;2023-05-23T12:53:15;101182.50;;;23.13;59.77
61337;BME280;47212;41.326;2.104;2023-05-23T12:58:17;101178.38;;;23.19;60.13
61337;BME280;47212;41.326;2.104;2023-05-23T13:03:19;101174.31;;;23.16;59.99
61337;BME280;47212;41.326;2.104;2023-05-23T13:08:24;101170.47;;;23.30;59.79
61337;BME280;47212;41.326;2.104;2023-05-23T13:13:28;101169.53;;;23.46;60.09
61337;BME280;47212;41.326;2.104;2023-05-23T13:18:30;101165.22;;;23.58;58.94
61337;BME280;47212;41.326;2.104;2023-05-23T13:23:32;101171.84;;;23.44;58.60
61337;BME280;47212;41.326;2.104;2023-05-23T13:28:35;101166.38;;;23.27;58.51
61337;BME280;47212;41.326;2.104;2023-05-23T13:33:37;101159.19;;;23.05;58.50
61337;BME280;47212;41.326;2.104;2023-05-23T13:38:39;101166.53;;;22.72;59.18
61337;BME280;47212;41.326;2.104;2023-05-23T13:43:42;101171.22;;;22.33;60.20
61337;BME280;47212;41.326;2.104;2023-05-23T13:48:44;101162.59;;;22.35;60.35
61337;BME280;47212;41.326;2.104;2023-05-23T13:53:47;101164.97;;;22.53;60.33
61337;BME280;47212;41.326;2.104;2023-05-23T13:58:49;101147.81;;;22.60;59.97
61337;BME280;47212;41.326;2.104;2023-05-23T14:03:51;101162.31;;;22.66;59.96
61337;BME280;47212;41.326;2.104;2023-05-23T14:08:54;101175.78;;;22.38;60.26
61337;BME280;47212;41.326;2.104;2023-05-23T14:13:56;101178.91;;;22.28;61.11
61337;BME280;47212;41.326;2.104;2023-05-23T14:18:58;101172.19;;;22.37;60.88
61337;BME280;47212;41.326;2.104;2023-05-23T14:24:01;101182.47;;;22.37;60.82
61337;BME280;47212;41.326;2.104;2023-05-23T14:29:03;101177.91;;;22.41;60.63
61337;BME280;47212;41.326;2.104;2023-05-23T14:34:06;101175.16;;;22.32;60.97
61337;BME280;47212;41.326;2.104;2023-05-23T14:39:08;101177.09;;;22.32;61.46
61337;BME280;47212;41.326;2.104;2023-05-23T14:44:11;101163.09;;;22.28;61.36
61337;BME280;47212;41.326;2.104;2023-05-23T14:49:14;101171.22;;;22.33;60.62
61337;BME280;47212;41.326;2.104;2023-05-23T14:54:17;101160.13;;;22.33;60.57
61337;BME280;47212;41.326;2.104;2023-05-23T14:59:19;101165.34;;;22.35;59.88
61337;BME280;47212;41.326;2.104;2023-05-23T15:04:23;101163.91;;;22.29;60.78
61337;BME280;47212;41.326;2.104;2023-05-23T15:09:26;101178.13;;;22.18;61.44
61337;BME280;47212;41.326;2.104;2023-05-23T15:14:28;101182.88;;;21.92;62.13
61337;BME280;47212;41.326;2.104;2023-05-23T15:19:34;101176.69;;;21.78;62.57
61337;BME280;47212;41.326;2.104;2023-05-23T15:24:37;101182.06;;;21.83;63.08
61337;BME280;47212;41.326;2.104;2023-05-23T15:29:41;101176.03;;;21.98;62.72
61337;BME280;47212;41.326;2.104;2023-05-23T15:34:44;101181.91;;;22.05;62.81
61337;BME280;47212;41.326;2.104;2023-05-23T15:39:46;101175.19;;;21.98;62.48
61337;BME280;47212;41.326;2.104;2023-05-23T15:44:49;101181.41;;;21.94;62.52
61337;BME280;47212;41.326;2.104;2023-05-23T15:49:52;101177.19;;;21.88;62.07
61337;BME280;47212;41.326;2.104;2023-05-23T15:54:54;101175.06;;;21.77;63.50
61337;BME280;47212;41.326;2.104;2023-05-23T15:59:57;101165.63;;;21.69;63.91
61337;BME280;47212;41.326;2.104;2023-05-23T16:04:59;101156.50;;;21.69;64.25
61337;BME280;47212;41.326;2.104;2023-05-23T16:10:02;101152.59;;;21.70;64.56
61337;BME280;47212;41.326;2.104;2023-05-23T16:15:05;101148.66;;;21.71;64.59
61337;BME280;47212;41.326;2.104;2023-05-23T16:20:08;101150.28;;;21.80;64.77
61337;BME280;47212;41.326;2.104;2023-05-23T16:25:10;101155.00;;;21.88;64.49
61337;BME280;47212;41.326;2.104;2023-05-23T16:30:12;101147.84;;;21.79;64.38
61337;BME280;47212;41.326;2.104;2023-05-23T16:35:15;101144.25;;;21.78;64.36
61337;BME280;47212;41.326;2.104;2023-05-23T16:40:17;101136.28;;;21.77;64.53
61337;BME280;47212;41.326;2.104;2023-05-23T16:45:20;101139.53;;;21.79;64.85
61337;BME280;47212;41.326;2.104;2023-05-23T16:50:22;101140.50;;;21.83;64.95
61337;BME280;47212;41.326;2.104;2023-05-23T16:55:24;101131.03;;;21.84;64.80
61337;BME280;47212;41.326;2.104;2023-05-23T17:00:26;101127.94;;;21.94;64.79
61337;BME280;47212;41.326;2.104;2023-05-23T17:05:28;101133.47;;;22.03;64.74
61337;BME280;47212;41.326;2.104;2023-05-23T17:10:30;101121.53;;;22.02;64.70
61337;BME280;47212;41.326;2.104;2023-05-23T17:15:33;101118.94;;;21.97;64.36
61337;BME280;47212;41.326;2.104;2023-05-23T18:03:57;101122.59;;;21.72;63.60
61337;BME280;47212;41.326;2.104;2023-05-23T18:08:59;101123.22;;;21.60;64.00
61337;BME280;47212;41.326;2.104;2023-05-23T18:14:01;101130.06;;;21.45;64.59
61337;BME280;47212;41.326;2.104;2023-05-23T18:19:04;101135.28;;;21.38;65.03
61337;BME280;47212;41.326;2.104;2023-05-23T18:24:10;101124.69;;;21.32;65.11
61337;BME280;47212;41.326;2.104;2023-05-23T18:29:12;101133.63;;;21.20;65.62
61337;BME280;47212;41.326;2.104;2023-05-23T18:34:16;101139.47;;;21.10;66.36
61337;BME280;47212;41.326;2.104;2023-05-23T18:39:18;101135.22;;;21.04;66.76
61337;BME280;47212;41.326;2.104;2023-05-23T18:44:20;101136.53;;;20.97;67.91
61337;BME280;47212;41.326;2.104;2023-05-23T18:49:23;101134.81;;;20.79;68.41
61337;BME280;47212;41.326;2.104;2023-05-23T18:54:25;101134.13;;;20.65;69.09
61337;BME280;47212;41.326;2.104;2023-05-23T18:59:28;101138.69;;;20.61;69.38
61337;BME280;47212;41.326;2.104;2023-05-23T19:04:29;101153.63;;;20.60;69.80
61337;BME280;47212;41.326;2.104;2023-05-23T19:09:33;101161.75;;;20.56;70.08
61337;BME280;47212;41.326;2.104;2023-05-23T19:14:36;101161.25;;;20.54;70.47
61337;BME280;47212;41.326;2.104;2023-05-23T19:19:38;101156.38;;;20.51;70.46
61337;BME280;47212;41.326;2.104;2023-05-23T19:24:40;101165.47;;;20.52;70.52
61337;BME280;47212;41.326;2.104;2023-05-23T19:29:42;101172.47;;;20.49;70.58
61337;BME280;47212;41.326;2.104;2023-05-23T19:34:45;101182.22;;;20.47;70.61
61337;BME280;47212;41.326;2.104;2023-05-23T19:39:50;101185.13;;;20.42;70.74
61337;BME280;47212;41.326;2.104;2023-05-23T19:44:52;101187.38;;;20.40;70.83
61337;BME280;47212;41.326;2.104;2023-05-23T19:49:54;101199.69;;;20.33;71.06
61337;BME280;47212;41.326;2.104;2023-05-23T19:54:56;101201.09;;;20.22;71.39
61337;BME280;47212;41.326;2.104;2023-05-23T20:00:00;101199.59;;;20.16;72.30
61337;BME280;47212;41.326;2.104;2023-05-23T20:05:05;101197.22;;;20.01;72.92
61337;BME280;47212;41.326;2.104;2023-05-23T20:10:09;101208.06;;;19.97;73.23
61337;BME280;47212;41.326;2.104;2023-05-23T20:15:12;101214.41;;;19.98;73.63
61337;BME280;47212;41.326;2.104;2023-05-23T20:20:18;101224.66;;;19.97;73.61
61337;BME280;47212;41.326;2.104;2023-05-23T20:25:20;101236.53;;;19.98;73.54
61337;BME280;47212;41.326;2.104;2023-05-23T20:30:23;101239.78;;;20.00;73.70
61337;BME280;47212;41.326;2.104;2023-05-23T20:35:25;101249.41;;;20.02;73.46
61337;BME280;47212;41.326;2.104;2023-05-23T20:40:27;101248.59;;;20.02;73.13
61337;BME280;47212;41.326;2.104;2023-05-23T20:45:31;101261.25;;;20.03;72.85
61337;BME280;47212;41.326;2.104;2023-05-23T20:50:33;101268.44;;;20.04;72.27
61337;BME280;47212;41.326;2.104;2023-05-23T20:55:37;101272.50;;;20.07;72.15
61337;BME280;47212;41.326;2.104;2023-05-23T21:00:39;101281.13;;;20.05;72.53
61337;BME280;47212;41.326;2.104;2023-05-23T21:05:42;101280.63;;;20.03;72.46
61337;BME280;47212;41.326;2.104;2023-05-23T21:10:46;101289.53;;;20.00;72.34
61337;BME280;47212;41.326;2.104;2023-05-23T21:15:53;101291.78;;;19.98;72.77
61337;BME280;47212;41.326;2.104;2023-05-23T21:22:25;101298.44;;;19.97;72.98
61337;BME280;47212;41.326;2.104;2023-05-23T21:27:27;101303.16;;;19.96;72.74
61337;BME280;47212;41.326;2.104;2023-05-23T21:32:30;101299.03;;;19.94;71.91
61337;BME280;47212;41.326;2.104;2023-05-23T21:37:33;101297.94;;;19.95;71.42
61337;BME280;47212;41.326;2.104;2023-05-23T21:42:40;101296.00;;;19.95;70.81
61337;BME280;47212;41.326;2.104;2023-05-23T21:47:42;101304.28;;;19.95;71.05
61337;BME280;47212;41.326;2.104;2023-05-23T21:52:44;101312.25;;;19.97;70.99
61337;BME280;47212;41.326;2.104;2023-05-23T21:57:46;101318.91;;;19.96;71.33
61337;BME280;47212;41.326;2.104;2023-05-23T22:02:49;101319.22;;;19.94;71.48
61337;BME280;47212;41.326;2.104;2023-05-23T22:07:56;101317.88;;;19.92;71.66
61337;BME280;47212;41.326;2.104;2023-05-23T22:12:58;101317.38;;;19.90;71.87
61337;BME280;47212;41.326;2.104;2023-05-23T22:18:00;101304.69;;;19.89;71.72
61337;BME280;47212;41.326;2.104;2023-05-23T22:23:02;101305.50;;;19.89;71.63
61337;BME280;47212;41.326;2.104;2023-05-23T22:28:11;101303.53;;;19.90;71.21
61337;BME280;47212;41.326;2.104;2023-05-23T22:33:13;101307.44;;;19.89;70.94
61337;BME280;47212;41.326;2.104;2023-05-23T22:38:15;101303.03;;;19.88;70.54
61337;BME280;47212;41.326;2.104;2023-05-23T22:43:22;101296.38;;;19.89;70.26
61337;BME280;47212;41.326;2.104;2023-05-23T22:48:27;101297.50;;;19.88;69.77
61337;BME280;47212;41.326;2.104;2023-05-23T22:53:37;101295.38;;;19.85;68.70
61337;BME280;47212;41.326;2.104;2023-05-23T22:58:39;101294.06;;;19.82;67.75
61337;BME280;47212;41.326;2.104;2023-05-23T23:03:42;101297.63;;;19.83;67.45
61337;BME280;47212;41.326;2.104;2023-05-23T23:08:45;101287.72;;;19.82;67.09
61337;BME280;47212;41.326;2.104;2023-05-23T23:13:55;101284.25;;;19.76;66.78
61337;BME280;47212;41.326;2.104;2023-05-23T23:18:57;101281.28;;;19.72;65.98
61337;BME280;47212;41.326;2.104;2023-05-23T23:24:02;101278.03;;;19.70;65.60
61337;BME280;47212;41.326;2.104;2023-05-23T23:29:05;101277.50;;;19.68;65.17
61337;BME280;47212;41.326;2.104;2023-05-23T23:34:09;101278.13;;;19.65;64.61
61337;BME280;47212;41.326;2.104;2023-05-23T23:39:11;101271.59;;;19.61;64.39
61337;BME280;47212;41.326;2.104;2023-05-23T23:44:14;101259.53;;;19.57;64.29
61337;BME280;47212;41.326;2.104;2023-05-23T23:49:16;101263.44;;;19.56;64.13
61337;BME280;47212;41.326;2.104;2023-05-23T23:54:18;101271.78;;;19.51;64.03
61337;BME280;47212;41.326;2.104;2023-05-23T23:59:22;101267.50;;;19.45;64.04
